sensor_id;sensor_type;location;lat;lon;timestamp;pressure;altitude;pressure_sealevel;temperature;humidity
6032;BME280;3044;43.232;27.972;2023-02-20T00:01:00;45075.72;;;-143.84;54.49
6032;BME280;3044;43.232;27.972;2023-02-20T00:03:27;45075.72;;;-143.84;54.43
6032;BME280;3044;43.232;27.972;2023-02-20T00:05:55;45100.47;;;-143.84;54.13
6032;BME280;3044;43.232;27.972;2023-02-20T00:08:22;45068.13;;;-143.84;53.36
6032;BME280;3044;43.232;27.972;2023-02-20T00:10:49;45096.66;;;-143.84;53.41
6032;BME280;3044;43.232;27.972;2023-02-20T00:13:18;45085.25;;;-143.84;53.13
6032;BME280;3044;43.232;27.972;2023-02-20T00:15:45;45098.56;;;-143.84;52.98
6032;BME280;3044;43.232;27.972;2023-02-20T00:18:12;45087.16;;;-143.84;53.45
6032;BME280;3044;43.232;27.972;2023-02-20T00:20:40;45100.47;;;-143.84;53.44
6032;BME280;3044;43.232;27.972;2023-02-20T00:23:07;45090.97;;;-143.84;53.46
6032;BME280;3044;43.232;27.972;2023-02-20T00:25:34;45071.91;;;-143.84;53.40
6032;BME280;3044;43.232;27.972;2023-02-20T00:28:01;45100.47;;;-143.84;53.78
6032;BME280;3044;43.232;27.972;2023-02-20T00:30:30;45071.91;;;-143.84;53.56
6032;BME280;3044;43.232;27.972;2023-02-20T00:32:57;45071.91;;;-143.84;53.75
6032;BME280;3044;43.232;27.972;2023-02-20T00:35:25;45102.38;;;-143.84;53.95
6032;BME280;3044;43.232;27.972;2023-02-20T00:37:53;45062.41;;;-143.84;53.41
6032;BME280;3044;43.232;27.972;2023-02-20T00:40:22;45087.16;;;-143.84;53.39
6032;BME280;3044;43.232;27.972;2023-02-20T00:42:50;45073.81;;;-143.84;52.85
6032;BME280;3044;43.232;27.972;2023-02-20T00:45:18;45077.63;;;-143.84;53.20
6032;BME280;3044;43.232;27.972;2023-02-20T00:47:46;45079.53;;;-143.84;52.90
6032;BME280;3044;43.232;27.972;2023-02-20T00:50:14;45062.41;;;-143.84;53.16
6032;BME280;3044;43.232;27.972;2023-02-20T00:52:42;45110.00;;;-143.84;53.33
6032;BME280;3044;43.232;27.972;2023-02-20T00:55:09;45081.44;;;-143.84;53.41
6032;BME280;3044;43.232;27.972;2023-02-20T00:57:37;45083.34;;;-143.84;53.50
6032;BME280;3044;43.232;27.972;2023-02-20T01:00:11;45094.78;;;-143.84;53.49
6032;BME280;3044;43.232;27.972;2023-02-20T01:02:38;45075.72;;;-143.84;53.63
6032;BME280;3044;43.232;27.972;2023-02-20T01:05:07;45071.91;;;-143.84;53.52
6032;BME280;3044;43.232;27.972;2023-02-20T01:07:34;45085.25;;;-143.84;53.37
6032;BME280;3044;43.232;27.972;2023-02-20T01:10:01;45090.97;;;-143.84;53.78
6032;BME280;3044;43.232;27.972;2023-02-20T01:12:28;45098.56;;;-143.84;53.93
6032;BME280;3044;43.232;27.972;2023-02-20T01:14:56;45089.06;;;-143.84;54.25
6032;BME280;3044;43.232;27.972;2023-02-20T01:17:23;45083.34;;;-143.84;54.11
6032;BME280;3044;43.232;27.972;2023-02-20T01:19:50;45106.19;;;-143.84;54.47
6032;BME280;3044;43.232;27.972;2023-02-20T01:22:18;45102.38;;;-143.84;54.27
6032;BME280;3044;43.232;27.972;2023-02-20T01:24:45;45083.34;;;-143.84;54.42
6032;BME280;3044;43.232;27.972;2023-02-20T01:27:13;45117.63;;;-143.84;54.48
6032;BME280;3044;43.232;27.972;2023-02-20T01:29:40;45071.91;;;-143.84;54.52
6032;BME280;3044;43.232;27.972;2023-02-20T01:32:10;45115.72;;;-143.84;54.42
6032;BME280;3044;43.232;27.972;2023-02-20T01:34:37;45085.25;;;-143.84;54.98
6032;BME280;3044;43.232;27.972;2023-02-20T01:37:05;45083.34;;;-143.84;54.96
6032;BME280;3044;43.232;27.972;2023-02-20T01:39:34;45092.88;;;-143.84;55.20
6032;BME280;3044;43.232;27.972;2023-02-20T01:42:02;45092.88;;;-143.84;55.73
6032;BME280;3044;43.232;27.972;2023-02-20T01:44:33;45121.44;;;-143.84;55.58
6032;BME280;3044;43.232;27.972;2023-02-20T01:47:01;45096.66;;;-143.84;55.63
6032;BME280;3044;43.232;27.972;2023-02-20T01:49:33;45119.53;;;-143.84;55.52
6032;BME280;3044;43.232;27.972;2023-02-20T01:52:07;45106.19;;;-143.84;56.14
6032;BME280;3044;43.232;27.972;2023-02-20T01:54:38;45087.16;;;-143.84;56.02
6032;BME280;3044;43.232;27.972;2023-02-20T01:57:10;45081.44;;;-143.84;56.31
6032;BME280;3044;43.232;27.972;2023-02-20T01:59:40;45096.66;;;-143.84;56.25
6032;BME280;3044;43.232;27.972;2023-02-20T02:02:09;45066.22;;;-143.84;56.42
6032;BME280;3044;43.232;27.972;2023-02-20T02:04:39;45100.47;;;-143.84;56.91
6032;BME280;3044;43.232;27.972;2023-02-20T02:07:07;45115.72;;;-143.84;56.88
6032;BME280;3044;43.232;27.972;2023-02-20T02:09:40;45092.88;;;-143.84;57.34
6032;BME280;3044;43.232;27.972;2023-02-20T02:12:10;45094.78;;;-143.84;57.56
6032;BME280;3044;43.232;27.972;2023-02-20T02:14:37;45106.19;;;-143.84;57.95
6032;BME280;3044;43.232;27.972;2023-02-20T02:17:19;45119.53;;;-143.84;57.93
6032;BME280;3044;43.232;27.972;2023-02-20T02:23:33;45111.91;;;-143.84;58.25
6032;BME280;3044;43.232;27.972;2023-02-20T02:26:31;45121.44;;;-143.84;58.22
6032;BME280;3044;43.232;27.972;2023-02-20T02:29:26;45098.56;;;-143.84;58.41
6032;BME280;3044;43.232;27.972;2023-02-20T02:32:15;45087.16;;;-143.84;58.59
6032;BME280;3044;43.232;27.972;2023-02-20T02:37:56;45083.34;;;-143.84;58.93
6032;BME280;3044;43.232;27.972;2023-02-20T02:40:37;45102.38;;;-143.84;58.62
6032;BME280;3044;43.232;27.972;2023-02-20T02:43:08;45090.97;;;-143.84;59.06
6032;BME280;3044;43.232;27.972;2023-02-20T02:45:44;45110.00;;;-143.84;59.04
6032;BME280;3044;43.232;27.972;2023-02-20T02:48:16;45087.16;;;-143.84;59.53
6032;BME280;3044;43.232;27.972;2023-02-20T02:50:46;45110.00;;;-143.84;59.60
6032;BME280;3044;43.232;27.972;2023-02-20T02:53:16;45106.19;;;-143.84;59.49
6032;BME280;3044;43.232;27.972;2023-02-20T02:55:44;45085.25;;;-143.84;59.77
6032;BME280;3044;43.232;27.972;2023-02-20T02:58:12;45100.47;;;-143.84;59.58
6032;BME280;3044;43.232;27.972;2023-02-20T03:00:44;45132.84;;;-143.84;60.09
6032;BME280;3044;43.232;27.972;2023-02-20T03:03:15;45050.97;;;-143.84;60.06
6032;BME280;3044;43.232;27.972;2023-02-20T03:05:49;45102.38;;;-143.84;60.03
6032;BME280;3044;43.232;27.972;2023-02-20T03:08:26;45085.25;;;-143.84;60.13
6032;BME280;3044;43.232;27.972;2023-02-20T03:11:00;45123.34;;;-143.84;60.29
6032;BME280;3044;43.232;27.972;2023-02-20T03:13:31;45115.72;;;-143.84;60.16
6032;BME280;3044;43.232;27.972;2023-02-20T03:16:21;45090.97;;;-143.84;59.98
6032;BME280;3044;43.232;27.972;2023-02-20T03:18:54;45110.00;;;-143.84;60.01
6032;BME280;3044;43.232;27.972;2023-02-20T03:21:25;45094.78;;;-143.84;60.53
6032;BME280;3044;43.232;27.972;2023-02-20T03:23:59;45096.66;;;-143.84;60.78
6032;BME280;3044;43.232;27.972;2023-02-20T03:26:30;45129.03;;;-143.84;60.69
6032;BME280;3044;43.232;27.972;2023-02-20T03:29:02;45100.47;;;-143.84;60.78
6032;BME280;3044;43.232;27.972;2023-02-20T03:31:34;45117.63;;;-143.84;60.87
6032;BME280;3044;43.232;27.972;2023-02-20T03:34:07;45113.81;;;-143.84;61.11
6032;BME280;3044;43.232;27.972;2023-02-20T03:36:56;45096.66;;;-143.84;61.62
6032;BME280;3044;43.232;27.972;2023-02-20T03:39:47;45113.81;;;-143.84;63.41
6032;BME280;3044;43.232;27.972;2023-02-20T03:42:35;45127.13;;;-143.84;64.98
6032;BME280;3044;43.232;27.972;2023-02-20T03:45:21;45111.91;;;-143.84;64.87
6032;BME280;3044;43.232;27.972;2023-02-20T03:47:53;45098.56;;;-143.84;64.68
6032;BME280;3044;43.232;27.972;2023-02-20T03:50:23;45115.72;;;-143.84;64.83
6032;BME280;3044;43.232;27.972;2023-02-20T03:52:50;45106.19;;;-143.84;64.56
6032;BME280;3044;43.232;27.972;2023-02-20T03:55:19;45113.81;;;-143.84;63.89
6032;BME280;3044;43.232;27.972;2023-02-20T03:57:49;45106.19;;;-143.84;63.86
6032;BME280;3044;43.232;27.972;2023-02-20T04:00:19;45089.06;;;-143.84;63.35
6032;BME280;3044;43.232;27.972;2023-02-20T04:02:51;45094.78;;;-143.84;62.20
6032;BME280;3044;43.232;27.972;2023-02-20T04:05:22;45102.38;;;-143.84;61.83
6032;BME280;3044;43.232;27.972;2023-02-20T04:07:54;45075.72;;;-143.84;61.69
6032;BME280;3044;43.232;27.972;2023-02-20T04:10:25;45136.66;;;-143.84;61.29
6032;BME280;3044;43.232;27.972;2023-02-20T04:12:55;45115.72;;;-143.84;60.38
6032;BME280;3044;43.232;27.972;2023-02-20T04:15:24;45092.88;;;-143.84;60.35
6032;BME280;3044;43.232;27.972;2023-02-20T04:17:55;45132.84;;;-143.84;59.78
6032;BME280;3044;43.232;27.972;2023-02-20T04:20:24;45106.19;;;-143.84;59.53
6032;BME280;3044;43.232;27.972;2023-02-20T04:22:55;45111.91;;;-143.84;59.09
6032;BME280;3044;43.232;27.972;2023-02-20T04:25:32;45123.34;;;-143.84;59.15
6032;BME280;3044;43.232;27.972;2023-02-20T04:28:04;45110.00;;;-143.84;59.04
6032;BME280;3044;43.232;27.972;2023-02-20T04:30:32;45117.63;;;-143.84;58.66
6032;BME280;3044;43.232;27.972;2023-02-20T04:32:59;45113.81;;;-143.84;59.03
6032;BME280;3044;43.232;27.972;2023-02-20T04:35:26;45108.09;;;-143.84;59.62
6032;BME280;3044;43.232;27.972;2023-02-20T04:37:54;45132.84;;;-143.84;60.05
6032;BME280;3044;43.232;27.972;2023-02-20T04:40:23;45123.34;;;-143.84;61.22
6032;BME280;3044;43.232;27.972;2023-02-20T04:42:51;45125.22;;;-143.84;62.14
6032;BME280;3044;43.232;27.972;2023-02-20T04:45:18;45110.00;;;-143.84;62.14
6032;BME280;3044;43.232;27.972;2023-02-20T04:47:46;45106.19;;;-143.84;62.67
6032;BME280;3044;43.232;27.972;2023-02-20T04:50:18;45121.44;;;-143.84;63.17
6032;BME280;3044;43.232;27.972;2023-02-20T04:52:46;45125.22;;;-143.84;63.52
6032;BME280;3044;43.232;27.972;2023-02-20T04:55:13;45096.66;;;-143.84;64.21
6032;BME280;3044;43.232;27.972;2023-02-20T04:57:40;45136.66;;;-143.84;64.63
6032;BME280;3044;43.232;27.972;2023-02-20T05:00:10;45142.38;;;-143.84;64.82
6032;BME280;3044;43.232;27.972;2023-02-20T05:02:38;45136.66;;;-143.84;65.13
6032;BME280;3044;43.232;27.972;2023-02-20T05:05:09;45136.66;;;-143.84;65.52
6032;BME280;3044;43.232;27.972;2023-02-20T05:07:40;45146.19;;;-143.84;65.00
6032;BME280;3044;43.232;27.972;2023-02-20T05:10:08;45106.19;;;-143.84;65.02
6032;BME280;3044;43.232;27.972;2023-02-20T05:12:35;45144.28;;;-143.84;64.85
6032;BME280;3044;43.232;27.972;2023-02-20T05:15:02;45106.19;;;-143.84;64.59
6032;BME280;3044;43.232;27.972;2023-02-20T05:17:31;45125.22;;;-143.84;64.67
6032;BME280;3044;43.232;27.972;2023-02-20T05:19:58;45129.03;;;-143.84;64.91
6032;BME280;3044;43.232;27.972;2023-02-20T05:22:25;45130.94;;;-143.84;64.17
6032;BME280;3044;43.232;27.972;2023-02-20T05:24:51;45132.84;;;-143.84;64.51
6032;BME280;3044;43.232;27.972;2023-02-20T05:27:21;45155.69;;;-143.84;64.17
6032;BME280;3044;43.232;27.972;2023-02-20T05:29:50;45155.69;;;-143.84;64.14
6032;BME280;3044;43.232;27.972;2023-02-20T05:32:18;45123.34;;;-143.84;63.92
6032;BME280;3044;43.232;27.972;2023-02-20T05:34:47;45123.34;;;-143.84;64.16
6032;BME280;3044;43.232;27.972;2023-02-20T05:37:16;45144.28;;;-143.84;64.31
6032;BME280;3044;43.232;27.972;2023-02-20T05:39:44;45121.44;;;-143.84;64.15
6032;BME280;3044;43.232;27.972;2023-02-20T05:42:11;45146.19;;;-143.84;64.22
6032;BME280;3044;43.232;27.972;2023-02-20T05:44:39;45129.03;;;-143.84;64.60
6032;BME280;3044;43.232;27.972;2023-02-20T05:47:06;45121.44;;;-143.84;64.97
6032;BME280;3044;43.232;27.972;2023-02-20T05:49:34;45129.03;;;-143.84;64.94
6032;BME280;3044;43.232;27.972;2023-02-20T05:52:04;45125.22;;;-143.84;65.16
6032;BME280;3044;43.232;27.972;2023-02-20T05:54:36;45134.75;;;-143.84;65.50
6032;BME280;3044;43.232;27.972;2023-02-20T05:57:03;45098.56;;;-143.84;64.99
6032;BME280;3044;43.232;27.972;2023-02-20T05:59:31;45136.66;;;-143.84;64.81
6032;BME280;3044;43.232;27.972;2023-02-20T06:01:59;45115.72;;;-143.84;64.88
6032;BME280;3044;43.232;27.972;2023-02-20T06:04:26;45127.13;;;-143.84;64.36
6032;BME280;3044;43.232;27.972;2023-02-20T06:06:53;45136.66;;;-143.84;63.97
6032;BME280;3044;43.232;27.972;2023-02-20T06:09:22;45132.84;;;-143.84;64.00
6032;BME280;3044;43.232;27.972;2023-02-20T06:11:51;45110.00;;;-143.84;63.48
6032;BME280;3044;43.232;27.972;2023-02-20T06:14:19;45136.66;;;-143.84;63.58
6032;BME280;3044;43.232;27.972;2023-02-20T06:16:47;45106.19;;;-143.84;63.79
6032;BME280;3044;43.232;27.972;2023-02-20T06:19:18;45117.63;;;-143.84;64.11
6032;BME280;3044;43.232;27.972;2023-02-20T06:21:47;45150.00;;;-143.84;63.77
6032;BME280;3044;43.232;27.972;2023-02-20T06:24:15;45151.91;;;-143.84;63.51
6032;BME280;3044;43.232;27.972;2023-02-20T06:26:45;45144.28;;;-143.84;63.60
6032;BME280;3044;43.232;27.972;2023-02-20T06:29:14;45138.56;;;-143.84;63.79
6032;BME280;3044;43.232;27.972;2023-02-20T06:31:42;45148.09;;;-143.84;64.33
6032;BME280;3044;43.232;27.972;2023-02-20T06:34:10;45157.59;;;-143.84;64.37
6032;BME280;3044;43.232;27.972;2023-02-20T06:36:39;45148.09;;;-143.84;63.97
6032;BME280;3044;43.232;27.972;2023-02-20T06:39:08;45144.28;;;-143.84;64.64
6032;BME280;3044;43.232;27.972;2023-02-20T06:41:35;45132.84;;;-143.84;64.60
6032;BME280;3044;43.232;27.972;2023-02-20T06:44:04;45142.38;;;-143.84;64.87
6032;BME280;3044;43.232;27.972;2023-02-20T06:46:31;45111.91;;;-143.84;65.96
6032;BME280;3044;43.232;27.972;2023-02-20T06:48:58;45132.84;;;-143.84;65.89
6032;BME280;3044;43.232;27.972;2023-02-20T06:51:27;45119.53;;;-143.84;66.51
6032;BME280;3044;43.232;27.972;2023-02-20T06:53:55;45150.00;;;-143.84;66.81
6032;BME280;3044;43.232;27.972;2023-02-20T06:56:25;45146.19;;;-143.84;66.90
6032;BME280;3044;43.232;27.972;2023-02-20T06:58:53;45106.19;;;-143.84;67.33
6032;BME280;3044;43.232;27.972;2023-02-20T07:01:24;45130.94;;;-143.84;68.10
6032;BME280;3044;43.232;27.972;2023-02-20T07:03:53;45127.13;;;-143.84;69.23
6032;BME280;3044;43.232;27.972;2023-02-20T07:06:22;45129.03;;;-143.84;68.61
6032;BME280;3044;43.232;27.972;2023-02-20T07:08:50;45144.28;;;-143.84;69.20
6032;BME280;3044;43.232;27.972;2023-02-20T07:11:19;45169.03;;;-143.84;69.52
6032;BME280;3044;43.232;27.972;2023-02-20T07:13:46;45159.50;;;-143.84;69.89
6032;BME280;3044;43.232;27.972;2023-02-20T07:16:14;45115.72;;;-143.84;70.40
6032;BME280;3044;43.232;27.972;2023-02-20T07:18:42;45148.09;;;-143.84;70.20
6032;BME280;3044;43.232;27.972;2023-02-20T07:21:09;45153.81;;;-143.84;71.04
6032;BME280;3044;43.232;27.972;2023-02-20T07:23:36;45134.75;;;-143.84;71.77
6032;BME280;3044;43.232;27.972;2023-02-20T07:26:04;45125.22;;;-143.84;71.57
6032;BME280;3044;43.232;27.972;2023-02-20T07:28:33;45121.44;;;-143.84;72.44
6032;BME280;3044;43.232;27.972;2023-02-20T07:31:00;45148.09;;;-143.84;73.23
6032;BME280;3044;43.232;27.972;2023-02-20T07:33:27;45146.19;;;-143.84;72.97
6032;BME280;3044;43.232;27.972;2023-02-20T07:35:56;45140.47;;;-143.84;73.79
6032;BME280;3044;43.232;27.972;2023-02-20T07:38:23;45142.38;;;-143.84;73.31
6032;BME280;3044;43.232;27.972;2023-02-20T07:40:50;45127.13;;;-143.84;72.68
6032;BME280;3044;43.232;27.972;2023-02-20T07:43:17;45142.38;;;-143.84;72.83
6032;BME280;3044;43.232;27.972;2023-02-20T07:45:44;45115.72;;;-143.84;72.48
6032;BME280;3044;43.232;27.972;2023-02-20T07:48:12;45146.19;;;-143.84;72.02
6032;BME280;3044;43.232;27.972;2023-02-20T07:50:39;45125.22;;;-143.84;72.31
6032;BME280;3044;43.232;27.972;2023-02-20T07:53:08;45151.91;;;-143.84;72.05
6032;BME280;3044;43.232;27.972;2023-02-20T07:55:39;45130.94;;;-143.84;71.38
6032;BME280;3044;43.232;27.972;2023-02-20T07:58:06;45151.91;;;-143.84;71.88
6032;BME280;3044;43.232;27.972;2023-02-20T08:00:33;45140.47;;;-143.84;72.61
6032;BME280;3044;43.232;27.972;2023-02-20T08:03:01;45127.13;;;-143.84;72.25
6032;BME280;3044;43.232;27.972;2023-02-20T08:05:28;45119.53;;;-143.84;72.75
6032;BME280;3044;43.232;27.972;2023-02-20T08:07:55;45144.28;;;-143.84;72.72
6032;BME280;3044;43.232;27.972;2023-02-20T08:10:25;45155.69;;;-143.84;72.90
6032;BME280;3044;43.232;27.972;2023-02-20T08:12:53;45136.66;;;-143.84;73.53
6032;BME280;3044;43.232;27.972;2023-02-20T08:15:21;45125.22;;;-143.84;74.10
6032;BME280;3044;43.232;27.972;2023-02-20T08:17:49;45136.66;;;-143.84;74.25
6032;BME280;3044;43.232;27.972;2023-02-20T08:20:17;45113.81;;;-143.84;74.99
6032;BME280;3044;43.232;27.972;2023-02-20T08:22:46;45121.44;;;-143.84;76.45
6032;BME280;3044;43.232;27.972;2023-02-20T08:25:14;45106.19;;;-143.84;77.15
6032;BME280;3044;43.232;27.972;2023-02-20T08:27:45;45098.56;;;-143.84;78.34
6032;BME280;3044;43.232;27.972;2023-02-20T08:30:16;45094.78;;;-143.84;79.18
6032;BME280;3044;43.232;27.972;2023-02-20T08:32:43;45092.88;;;-143.84;79.39
6032;BME280;3044;43.232;27.972;2023-02-20T08:35:10;45056.69;;;-143.84;79.70
6032;BME280;3044;43.232;27.972;2023-02-20T08:37:38;45064.31;;;-143.84;80.30
6032;BME280;3044;43.232;27.972;2023-02-20T08:40:06;45070.00;;;-143.84;80.90
6032;BME280;3044;43.232;27.972;2023-02-20T08:42:33;45030.03;;;-143.84;81.21
6032;BME280;3044;43.232;27.972;2023-02-20T08:45:03;45030.03;;;-143.84;81.90
6032;BME280;3044;43.232;27.972;2023-02-20T08:47:31;45018.59;;;-143.84;81.76
6032;BME280;3044;43.232;27.972;2023-02-20T08:49:59;44982.41;;;-143.84;82.38
6032;BME280;3044;43.232;27.972;2023-02-20T08:52:26;44873.88;;;-143.84;83.03
6032;BME280;3044;43.232;27.972;2023-02-20T08:54:53;44858.66;;;-143.84;83.58
6032;BME280;3044;43.232;27.972;2023-02-20T08:57:20;44748.22;;;-143.84;84.12
6032;BME280;3044;43.232;27.972;2023-02-20T08:59:47;44738.69;;;-143.84;84.20
6032;BME280;3044;43.232;27.972;2023-02-20T09:02:18;44578.78;;;-143.84;84.76
6032;BME280;3044;43.232;27.972;2023-02-20T09:04:46;44500.72;;;-143.84;84.98
6032;BME280;3044;43.232;27.972;2023-02-20T09:07:13;44506.44;;;-143.84;85.15
6032;BME280;3044;43.232;27.972;2023-02-20T09:09:41;44474.06;;;-143.84;85.23
6032;BME280;3044;43.232;27.972;2023-02-20T09:12:08;44335.09;;;-143.84;85.48
6032;BME280;3044;43.232;27.972;2023-02-20T09:14:35;44106.63;;;-143.84;86.16
6032;BME280;3044;43.232;27.972;2023-02-20T09:17:03;43996.22;;;-143.84;86.56
6032;BME280;3044;43.232;27.972;2023-02-20T09:19:32;44053.34;;;-143.84;86.35
6032;BME280;3044;43.232;27.972;2023-02-20T09:21:59;43981.00;;;-143.84;86.39
6032;BME280;3044;43.232;27.972;2023-02-20T09:24:27;43965.78;;;-143.84;86.50
6032;BME280;3044;43.232;27.972;2023-02-20T09:26:58;43935.31;;;-143.84;86.80
6032;BME280;3044;43.232;27.972;2023-02-20T09:29:26;43832.53;;;-143.84;87.16
6032;BME280;3044;43.232;27.972;2023-02-20T09:31:53;43828.72;;;-143.84;87.42
6032;BME280;3044;43.232;27.972;2023-02-20T09:34:20;43826.81;;;-143.84;87.51
6032;BME280;3044;43.232;27.972;2023-02-20T09:36:49;43800.16;;;-143.84;87.60
6032;BME280;3044;43.232;27.972;2023-02-20T09:39:16;43775.41;;;-143.84;87.74
6032;BME280;3044;43.232;27.972;2023-02-20T09:41:58;43794.47;;;-143.84;87.56
6032;BME280;3044;43.232;27.972;2023-02-20T09:44:36;43897.25;;;-143.84;86.94
6032;BME280;3044;43.232;27.972;2023-02-20T09:47:15;43887.72;;;-143.84;86.80
6032;BME280;3044;43.232;27.972;2023-02-20T09:49:45;43918.19;;;-143.84;86.61
6032;BME280;3044;43.232;27.972;2023-02-20T09:52:16;44080.00;;;-143.84;86.13
6032;BME280;3044;43.232;27.972;2023-02-20T09:54:47;44053.34;;;-143.84;86.03
6032;BME280;3044;43.232;27.972;2023-02-20T09:57:20;44388.38;;;-143.84;85.38
6032;BME280;3044;43.232;27.972;2023-02-20T09:59:52;44316.03;;;-143.84;85.70
6032;BME280;3044;43.232;27.972;2023-02-20T10:02:25;44464.53;;;-143.84;85.03
6032;BME280;3044;43.232;27.972;2023-02-20T10:04:56;44466.44;;;-143.84;85.47
6032;BME280;3044;43.232;27.972;2023-02-20T10:07:30;44203.72;;;-143.84;85.86
6032;BME280;3044;43.232;27.972;2023-02-20T10:09:59;44460.72;;;-143.84;84.73
6032;BME280;3044;43.232;27.972;2023-02-20T10:12:31;44477.88;;;-143.84;85.08
6032;BME280;3044;43.232;27.972;2023-02-20T10:15:18;44693.00;;;-143.84;84.21
6032;BME280;3044;43.232;27.972;2023-02-20T10:17:51;44887.22;;;-143.84;82.89
6032;BME280;3044;43.232;27.972;2023-02-20T10:20:27;45039.53;;;-143.84;81.21
6032;BME280;3044;43.232;27.972;2023-02-20T10:23:04;45018.59;;;-143.84;81.32
6032;BME280;3044;43.232;27.972;2023-02-20T10:25:42;44913.88;;;-143.84;82.95
6032;BME280;3044;43.232;27.972;2023-02-20T10:28:14;45014.78;;;-143.84;81.75
6032;BME280;3044;43.232;27.972;2023-02-20T10:30:45;44991.94;;;-143.84;81.57
6032;BME280;3044;43.232;27.972;2023-02-20T10:33:21;44982.41;;;-143.84;81.61
6032;BME280;3044;43.232;27.972;2023-02-20T10:35:53;44978.63;;;-143.84;82.18
6032;BME280;3044;43.232;27.972;2023-02-20T10:38:26;45075.72;;;-143.84;77.77
6032;BME280;3044;43.232;27.972;2023-02-20T10:41:01;45121.44;;;-143.84;76.48
6032;BME280;3044;43.232;27.972;2023-02-20T10:43:36;45113.81;;;-143.84;73.59
6032;BME280;3044;43.232;27.972;2023-02-20T10:46:09;45127.13;;;-143.84;74.35
6032;BME280;3044;43.232;27.972;2023-02-20T10:48:39;45170.94;;;-143.84;70.46
6032;BME280;3044;43.232;27.972;2023-02-20T10:51:09;45148.09;;;-143.84;72.05
6032;BME280;3044;43.232;27.972;2023-02-20T10:53:44;45159.50;;;-143.84;71.83
6032;BME280;3044;43.232;27.972;2023-02-20T10:56:17;45127.13;;;-143.84;69.88
6032;BME280;3044;43.232;27.972;2023-02-20T10:58:52;45140.47;;;-143.84;70.75
6032;BME280;3044;43.232;27.972;2023-02-20T11:01:22;45127.13;;;-143.84;71.45
6032;BME280;3044;43.232;27.972;2023-02-20T11:03:55;45121.44;;;-143.84;71.30
6032;BME280;3044;43.232;27.972;2023-02-20T11:06:28;45151.91;;;-143.84;70.06
6032;BME280;3044;43.232;27.972;2023-02-20T11:08:58;45155.69;;;-143.84;71.51
6032;BME280;3044;43.232;27.972;2023-02-20T11:11:31;45117.63;;;-143.84;70.18
6032;BME280;3044;43.232;27.972;2023-02-20T11:14:00;45132.84;;;-143.84;68.41
6032;BME280;3044;43.232;27.972;2023-02-20T11:16:31;45121.44;;;-143.84;67.38
6032;BME280;3044;43.232;27.972;2023-02-20T11:19:07;45159.50;;;-143.84;66.96
6032;BME280;3044;43.232;27.972;2023-02-20T11:21:39;45113.81;;;-143.84;66.38
6032;BME280;3044;43.232;27.972;2023-02-20T11:24:39;45144.28;;;-143.84;65.05
6032;BME280;3044;43.232;27.972;2023-02-20T11:27:12;45125.22;;;-143.84;65.10
6032;BME280;3044;43.232;27.972;2023-02-20T11:29:46;45144.28;;;-143.84;66.19
6032;BME280;3044;43.232;27.972;2023-02-20T11:32:29;45108.09;;;-143.84;65.26
6032;BME280;3044;43.232;27.972;2023-02-20T11:35:14;45144.28;;;-143.84;65.40
6032;BME280;3044;43.232;27.972;2023-02-20T11:37:48;45125.22;;;-143.84;60.85
6032;BME280;3044;43.232;27.972;2023-02-20T11:40:23;45127.13;;;-143.84;61.60
6032;BME280;3044;43.232;27.972;2023-02-20T11:42:52;45140.47;;;-143.84;59.53
6032;BME280;3044;43.232;27.972;2023-02-20T11:45:23;45136.66;;;-143.84;58.60
6032;BME280;3044;43.232;27.972;2023-02-20T11:48:06;45138.56;;;-143.84;58.54
6032;BME280;3044;43.232;27.972;2023-02-20T11:50:38;45144.28;;;-143.84;56.60
6032;BME280;3044;43.232;27.972;2023-02-20T11:53:10;45089.06;;;-143.84;55.29
6032;BME280;3044;43.232;27.972;2023-02-20T11:55:44;45159.50;;;-143.84;54.94
6032;BME280;3044;43.232;27.972;2023-02-20T11:58:20;45110.00;;;-143.84;54.92
6032;BME280;3044;43.232;27.972;2023-02-20T12:00:49;45142.38;;;-143.84;55.20
6032;BME280;3044;43.232;27.972;2023-02-20T12:03:20;45106.19;;;-143.84;56.22
6032;BME280;3044;43.232;27.972;2023-02-20T12:05:48;45121.44;;;-143.84;56.08
6032;BME280;3044;43.232;27.972;2023-02-20T12:08:35;45129.03;;;-143.84;56.00
6032;BME280;3044;43.232;27.972;2023-02-20T12:11:10;45119.53;;;-143.84;56.33
6032;BME280;3044;43.232;27.972;2023-02-20T12:13:41;45132.84;;;-143.84;56.19
6032;BME280;3044;43.232;27.972;2023-02-20T12:16:24;45121.44;;;-143.84;54.06
6032;BME280;3044;43.232;27.972;2023-02-20T12:18:59;45090.97;;;-143.84;55.76
6032;BME280;3044;43.232;27.972;2023-02-20T12:21:38;45117.63;;;-143.84;56.09
6032;BME280;3044;43.232;27.972;2023-02-20T12:24:26;45127.13;;;-143.84;55.54
6032;BME280;3044;43.232;27.972;2023-02-20T12:26:59;45094.78;;;-143.84;54.14
6032;BME280;3044;43.232;27.972;2023-02-20T12:29:40;45127.13;;;-143.84;53.81
6032;BME280;3044;43.232;27.972;2023-02-20T12:32:19;45129.03;;;-143.84;53.69
6032;BME280;3044;43.232;27.972;2023-02-20T12:34:59;45104.28;;;-143.84;54.63
6032;BME280;3044;43.232;27.972;2023-02-20T12:37:43;45111.91;;;-143.84;53.71
6032;BME280;3044;43.232;27.972;2023-02-20T12:40:36;45136.66;;;-143.84;54.46
6032;BME280;3044;43.232;27.972;2023-02-20T12:43:17;45125.22;;;-143.84;53.84
6032;BME280;3044;43.232;27.972;2023-02-20T12:45:57;45089.06;;;-143.84;53.35
6032;BME280;3044;43.232;27.972;2023-02-20T12:48:33;45119.53;;;-143.84;53.01
6032;BME280;3044;43.232;27.972;2023-02-20T12:51:11;45083.34;;;-143.84;52.94
6032;BME280;3044;43.232;27.972;2023-02-20T12:53:55;45125.22;;;-143.84;52.89
6032;BME280;3044;43.232;27.972;2023-02-20T12:56:38;45106.19;;;-143.84;53.07
6032;BME280;3044;43.232;27.972;2023-02-20T12:59:20;45119.53;;;-143.84;53.18
6032;BME280;3044;43.232;27.972;2023-02-20T13:01:51;45096.66;;;-143.84;52.13
6032;BME280;3044;43.232;27.972;2023-02-20T13:04:24;45111.91;;;-143.84;52.21
6032;BME280;3044;43.232;27.972;2023-02-20T13:06:59;45121.44;;;-143.84;53.07
6032;BME280;3044;43.232;27.972;2023-02-20T13:09:32;45130.94;;;-143.84;51.63
6032;BME280;3044;43.232;27.972;2023-02-20T13:12:04;45163.31;;;-143.84;52.04
6032;BME280;3044;43.232;27.972;2023-02-20T13:14:52;45132.84;;;-143.84;53.39
6032;BME280;3044;43.232;27.972;2023-02-20T13:17:28;45130.94;;;-143.84;54.52